Latest Weather Observations for Lameroo AWS

IDS60801

Issued at 4:01 pm CDT Sunday 26 February 2017 (issued every 30 minutes, with the page automatically refreshed every 10 minutes)

About weather observations | Map of weather stations | Latest weather observations for SA | Other Formats
Station Details ID: 025562 Name: AUSTIN PLAINS Lat: -35.38 Lon: 140.54 Height: 110.08 m
Data from the previous 72 hours. | See also: Recent months at Lameroo AWS
Date/Time
CDT
Temp
°C
App
Temp
°C
Dew
Point
°C
Rel
Hum
%
Delta-T
°C
Wind Press
QNH
hPa
Press
MSL
hPa
Rain since
9am
mm
Dir  Spd
km/h
Gust
km/h
Spd
kts
Gust
kts
26/04:00pm 29.0 26.2 -0.2 15 13.8 NNE 4 9 2 5 1016.9 1016.5 0.0
26/03:30pm 29.0 25.7 -1.2 14 14.1 ESE 6 9 3 5 1017.2 1016.8 0.0
26/03:00pm 28.2 24.1 0.0 16 13.3 E 11 17 6 9 1017.6 1017.2 0.0
26/02:30pm 27.4 24.8 3.2 21 12.0 SE 6 17 3 9 1017.9 1017.5 0.0
26/02:00pm 26.6 23.5 3.8 23 11.4 S 9 19 5 10 1018.2 1017.8 0.0
26/01:30pm 25.7 23.2 4.8 26 10.6 S 7 15 4 8 1018.6 1018.2 0.0
26/01:00pm 24.5 22.0 4.8 28 9.9 SSE 7 17 4 9 1018.9 1018.5 0.0
26/12:30pm 23.9 20.9 4.3 28 9.7 S 9 17 5 9 1019.2 1018.8 0.0
26/12:00pm 22.6 20.1 6.4 35 8.3 SE 9 19 5 10 1019.6 1019.2 0.0
26/11:30am 21.9 20.2 7.7 40 7.4 SE 6 15 3 8 1020.0 1019.6 0.0
26/11:00am 20.1 18.3 8.1 46 6.2 SSE 7 13 4 7 1020.3 1019.9 0.0
26/10:30am 18.9 17.5 8.8 52 5.3 ESE 6 11 3 6 1020.7 1020.3 0.0
26/10:00am 17.8 16.4 9.4 58 4.4 E 7 13 4 7 1020.8 1020.4 0.0
26/09:30am 16.6 14.5 9.8 64 3.6 ESE 11 15 6 8 1020.7 1020.3 0.0
26/09:00am 14.2 11.4 8.6 69 2.8 SE 13 17 7 9 1020.7 1020.3 0.0
26/08:30am 12.1 9.2 8.0 76 2.0 SSE 13 17 7 9 1020.6 1020.2 0.0
26/08:00am 10.0 7.3 7.3 83 1.3 S 11 15 6 8 1020.6 1020.2 0.0
26/07:30am 7.5 4.1 5.8 89 0.8 SSW 13 15 7 8 1020.4 1020.0 0.0
26/07:00am 7.6 4.1 5.6 87 0.9 SSE 13 15 7 8 1020.3 1019.9 0.0
26/06:30am 8.0 4.2 5.6 85 1.1 SSE 15 17 8 9 1020.1 1019.7 0.0
26/06:00am 8.3 4.5 5.6 83 1.2 SSE 15 17 8 9 1019.9 1019.5 0.0
26/05:30am 8.4 4.6 5.7 83 1.2 S 15 17 8 9 1019.7 1019.3 0.0
26/05:00am 8.4 4.1 5.3 81 1.4 S 17 17 9 9 1019.5 1019.1 0.0
26/04:30am 9.3 5.1 5.5 77 1.7 SSE 17 19 9 10 1019.5 1019.1 0.0
26/04:00am 9.0 5.1 5.2 77 1.7 S 15 17 8 9 1019.6 1019.2 0.0
26/03:30am 9.9 6.0 5.5 74 2.0 SSE 15 17 8 9 1019.9 1019.5 0.0
26/03:00am 11.2 7.0 5.9 70 2.5 SSE 17 20 9 11 1019.9 1019.5 0.0
26/02:30am 11.8 7.3 5.9 67 2.8 SSE 19 20 10 11 1020.3 1019.9 0.0
26/02:00am 12.3 7.5 5.5 63 3.2 SSE 20 24 11 13 1020.4 1020.0 0.0
26/01:30am 13.2 7.6 5.4 59 3.7 SE 24 30 13 16 1020.4 1020.0 0.0
26/01:00am 13.7 8.4 4.8 55 4.1 SSE 22 30 12 16 1020.9 1020.5 0.0
26/12:30am 14.5 9.2 4.8 52 4.5 SSE 22 28 12 15 1021.1 1020.7 0.0
26/12:00am 14.9 9.5 4.6 50 4.8 SSE 22 30 12 16 1021.0 1020.6 0.0
 
Date/Time
CDT
Temp
°C
App
Temp
°C
Dew
Point
°C
Rel
Hum
%
Delta-T
°C
Wind Press
QNH
hPa
Press
MSL
hPa
Rain since
9am
mm
Dir  Spd
km/h
Gust
km/h
Spd
kts
Gust
kts
25/11:30pm 14.9 10.1 4.6 50 4.8 SSE 19 22 10 12 1021.3 1020.9 0.0
25/11:00pm 14.8 10.3 4.2 49 4.9 S 17 19 9 10 1021.2 1020.8 0.0
25/10:30pm 15.4 10.6 4.5 48 5.1 S 19 20 10 11 1021.1 1020.7 0.0
25/10:00pm 15.7 11.6 4.1 46 5.4 S 15 19 8 10 1021.1 1020.7 0.0
25/09:30pm 16.4 11.9 4.1 44 5.7 S 17 17 9 9 1020.9 1020.5 0.0
25/09:00pm 17.8 13.3 4.0 40 6.5 S 17 19 9 10 1020.6 1020.2 0.0
25/08:30pm 18.9 14.3 3.5 36 7.2 S 17 19 9 10 1020.3 1019.9 0.0
25/08:00pm 21.2 16.2 3.4 31 8.5 S 19 22 10 12 1020.1 1019.7 0.0
25/07:30pm 22.8 17.8 3.4 28 9.4 S 19 24 10 13 1019.9 1019.5 0.0
25/07:00pm 23.6 18.4 3.5 27 9.8 SSE 20 28 11 15 1019.8 1019.4 0.0
25/06:30pm 24.7 19.1 3.4 25 10.4 SSE 22 33 12 18 1019.9 1019.5 0.0
25/06:00pm 25.3 19.7 3.3 24 10.8 S 22 35 12 19 1020.0 1019.6 0.0
25/05:30pm 25.2 19.2 3.2 24 10.8 S 24 33 13 18 1020.0 1019.6 0.0
25/05:00pm 25.4 19.5 4.0 25 10.7 S 24 37 13 20 1020.1 1019.7 0.0
25/04:30pm 25.3 20.2 3.9 25 10.6 SSE 20 35 11 19 1020.4 1020.0 0.0
25/04:00pm 25.8 20.9 4.3 25 10.8 SSW 19 30 10 16 1020.7 1020.3 0.0
25/03:30pm 24.5 18.6 3.8 26 10.2 S 24 33 13 18 1021.0 1020.6 0.0
25/03:00pm 24.9 19.5 4.6 27 10.2 S 22 35 12 19 1021.4 1021.0 0.0
25/02:30pm 23.9 18.4 3.8 27 9.9 S 22 35 12 19 1021.9 1021.5 0.0
25/02:00pm 23.5 17.8 4.9 30 9.3 SSE 24 35 13 19 1022.4 1022.0 0.0
25/01:30pm 22.4 16.6 4.5 31 8.8 S 24 33 13 18 1022.7 1022.3 0.0
25/01:00pm 21.4 15.2 4.5 33 8.3 SSE 26 35 14 19 1023.1 1022.7 0.0
25/12:30pm 21.6 15.1 4.7 33 8.3 SSE 28 41 15 22 1023.5 1023.0 0.0
25/12:00pm 20.4 14.8 5.2 37 7.5 SSE 24 39 13 21 1023.9 1023.4 0.0
25/11:30am 20.0 14.6 6.4 41 6.8 SSE 24 37 13 20 1024.3 1023.8 0.0
25/11:00am 19.2 13.3 7.3 46 6.1 S 28 39 15 21 1024.8 1024.4 0.0
25/10:30am 18.1 12.1 7.2 49 5.5 SSE 28 41 15 22 1025.0 1024.6 0.0
25/10:00am 17.6 10.4 7.6 52 5.1 SSE 35 43 19 23 1025.1 1024.7 0.0
25/09:30am 16.5 9.8 7.4 55 4.5 SSE 32 39 17 21 1025.2 1024.8 0.0
25/09:00am 15.7 10.7 8.2 61 3.8 SSE 24 32 13 17 1025.3 1024.9 0.0
25/08:30am 14.1 8.9 8.7 70 2.7 SSE 26 32 14 17 1025.0 1024.6 0.0
25/08:00am 12.4 9.0 9.1 80 1.7 SSE 17 22 9 12 1024.8 1024.4 0.0
25/07:30am 11.1 7.6 8.7 85 1.2 S 17 20 9 11 1024.8 1024.4 0.0
25/07:00am 10.3 7.0 8.1 86 1.1 SSE 15 19 8 10 1024.8 1024.4 0.0
25/06:30am 10.5 6.9 8.3 86 1.1 SSE 17 20 9 11 1024.6 1024.2 0.0
25/06:00am 10.9 6.9 8.3 84 1.3 SSE 19 20 10 11 1024.2 1023.7 0.0
25/05:30am 10.8 7.5 8.0 83 1.4 SSE 15 19 8 10 1024.1 1023.6 0.0
25/05:00am 11.0 7.3 8.1 82 1.4 SSE 17 19 9 10 1024.0 1023.5 0.0
25/04:30am 11.2 7.5 7.9 80 1.6 S 17 22 9 12 1023.9 1023.4 0.0
25/04:00am 11.2 7.8 7.7 79 1.7 SSE 15 19 8 10 1023.9 1023.4 0.0
25/03:30am 11.5 8.1 7.6 77 1.9 SSE 15 17 8 9 1024.0 1023.5 0.0
25/03:00am 11.9 8.5 7.6 75 2.1 SSE 15 20 8 11 1024.0 1023.5 0.0
25/02:30am 12.2 8.4 7.7 74 2.2 SSE 17 20 9 11 1024.2 1023.7 0.0
25/02:00am 12.4 8.6 7.7 73 2.3 S 17 20 9 11 1024.3 1023.8 0.0
25/01:30am 13.2 9.1 7.9 70 2.6 SSE 19 22 10 12 1024.5 1024.1 0.0
25/01:00am 12.9 9.5 7.8 71 2.5 S 15 19 8 10 1024.8 1024.4 0.0
25/12:30am 13.7 9.9 7.7 67 3.0 S 17 20 9 11 1024.9 1024.5 0.0
25/12:00am 14.6 10.5 7.9 64 3.3 S 19 24 10 13 1024.7 1024.3 0.0
 
Date/Time
CDT
Temp
°C
App
Temp
°C
Dew
Point
°C
Rel
Hum
%
Delta-T
°C
Wind Press
QNH
hPa
Press
MSL
hPa
Rain since
9am
mm
Dir  Spd
km/h
Gust
km/h
Spd
kts
Gust
kts
24/11:30pm 15.3 11.2 7.8 61 3.7 S 19 26 10 14 1024.7 1024.3 0.0
24/11:00pm 16.0 11.6 7.2 56 4.4 S 20 26 11 14 1024.7 1024.3 0.0
24/10:30pm 17.2 11.6 7.3 52 5.0 S 26 32 14 17 1024.5 1024.1 0.0
24/10:00pm 17.5 12.7 7.5 52 5.1 S 22 28 12 15 1024.5 1024.1 0.0
24/09:30pm 18.3 13.6 7.7 50 5.4 S 22 28 12 15 1024.4 1024.0 0.0
24/09:00pm 19.1 14.4 7.8 48 5.8 S 22 32 12 17 1024.0 1023.5 0.0
24/08:30pm 19.2 15.2 6.7 44 6.3 S 17 20 9 11 1023.7 1023.2 0.0
24/08:00pm 20.7 16.2 6.3 39 7.3 S 19 26 10 14 1023.3 1022.8 0.0
24/07:30pm 22.1 15.8 5.9 35 8.2 S 28 35 15 19 1023.0 1022.6 0.0
24/07:00pm 23.6 17.8 6.4 33 8.9 S 26 37 14 20 1022.7 1022.3 0.0
24/06:30pm 24.5 18.6 5.8 30 9.6 S 26 32 14 17 1022.5 1022.1 0.0
24/06:00pm 25.3 20.2 6.0 29 9.9 S 22 33 12 18 1022.7 1022.3 0.0
24/05:30pm 25.4 19.6 6.1 29 10.0 S 26 33 14 18 1022.6 1022.2 0.0
24/05:00pm 25.4 19.8 5.6 28 10.2 SSE 24 33 13 18 1022.5 1022.1 0.0
24/04:30pm 25.6 20.5 5.8 28 10.2 S 22 30 12 16 1022.6 1022.2 0.0
24/04:00pm 25.7 20.2 5.8 28 10.3 S 24 37 13 20 1022.8 1022.4 0.0
24/03:30pm 25.4 20.4 6.6 30 9.8 S 22 35 12 19 1023.1 1022.7 0.0
24/03:00pm 25.3 20.3 6.5 30 9.8 S 22 33 12 18 1023.5 1023.0 0.0
24/02:30pm 24.4 19.2 5.7 30 9.5 S 22 39 12 21 1023.8 1023.3 0.0
24/02:00pm 23.3 17.8 5.7 32 8.9 SSE 24 43 13 23 1024.1 1023.6 0.0
24/01:30pm 24.1 18.6 5.9 31 9.3 S 24 39 13 21 1024.5 1024.1 0.0
24/01:00pm 22.9 18.2 6.2 34 8.5 SSE 20 32 11 17 1024.7 1024.3 0.0
24/12:30pm 21.5 16.0 5.8 36 7.9 S 24 37 13 20 1025.2 1024.8 0.0
24/12:00pm 21.0 15.7 6.9 40 7.2 SSE 24 35 13 19 1025.5 1025.1 0.0
24/11:30am 19.8 14.1 6.9 43 6.5 SSE 26 35 14 19 1025.9 1025.5 0.0
24/11:00am 19.7 13.8 7.4 45 6.3 SSE 28 37 15 20 1026.1 1025.7 0.0
24/10:30am 18.6 13.0 7.1 47 5.8 SSE 26 43 14 23 1026.3 1025.9 0.0
24/10:00am 18.1 11.8 7.2 49 5.5 SSE 30 39 16 21 1026.4 1026.0 0.0
24/09:30am 17.1 10.8 7.2 52 4.9 SSE 30 37 16 20 1026.3 1025.9 0.0
24/09:00am 15.7 10.6 7.5 58 4.1 SSE 24 30 13 16 1026.1 1025.7 0.2
24/08:30am 14.1 10.1 8.1 67 3.0 SSE 19 24 10 13 1025.8 1025.4 0.2
24/08:00am 10.9 8.4 8.3 84 1.3 S 11 15 6 8 1025.8 1025.4 0.2
24/07:30am 8.6 5.9 7.2 91 0.7 S 11 13 6 7 1025.4 1025.0 0.2
24/07:00am 7.1 3.7 5.9 92 0.5 S 13 13 7 7 1025.1 1024.7 0.2
24/06:30am 7.3 4.3 5.9 91 0.6 S 11 13 6 7 1024.7 1024.3 0.2
24/06:00am 7.4 4.1 6.2 92 0.5 SSW 13 15 7 8 1024.4 1024.0 0.2
24/05:30am 7.4 4.4 5.9 90 0.7 SSW 11 13 6 7 1024.4 1024.0 0.2
24/05:00am 7.8 5.2 5.9 88 0.9 SSW 9 11 5 6 1024.2 1023.7 0.2
24/04:30am 8.7 5.5 6.7 87 0.9 S 13 13 7 7 1023.8 1023.3 0.2
24/04:00am 9.2 6.3 6.6 84 1.2 SSW 11 13 6 7 1023.9 1023.4 0.2
24/03:30am 10.6 7.2 7.7 82 1.4 S 15 17 8 9 1023.7 1023.2 0.2
24/03:00am 11.1 7.7 7.8 80 1.6 SSE 15 17 8 9 1023.7 1023.2 0.2
24/02:30am 11.6 8.4 8.5 81 1.5 S 15 20 8 11 1023.7 1023.2 0.2
24/02:00am 11.7 8.2 8.6 81 1.5 S 17 19 9 10 1023.8 1023.3 0.2
24/01:30am 12.6 9.2 9.1 79 1.8 S 17 22 9 12 1024.1 1023.6 0.2
24/01:00am 13.0 9.2 9.1 77 2.0 S 19 24 10 13 1024.0 1023.5 0.2
24/12:30am 13.2 9.8 9.3 77 2.0 S 17 22 9 12 1024.0 1023.5 0.2
24/12:00am 13.5 10.2 9.4 76 2.1 SSW 17 22 9 12 1023.8 1023.3 0.2
 
Date/Time
CDT
Temp
°C
App
Temp
°C
Dew
Point
°C
Rel
Hum
%
Delta-T
°C
Wind Press
QNH
hPa
Press
MSL
hPa
Rain since
9am
mm
Dir  Spd
km/h
Gust
km/h
Spd
kts
Gust
kts
23/11:30pm 14.0 10.7 9.4 74 2.4 SSW 17 22 9 12 1023.8 1023.3 0.2
23/11:00pm 14.5 10.8 9.3 71 2.7 SSW 19 24 10 13 1023.5 1023.0 0.2
23/10:30pm 15.2 11.3 9.6 69 2.9 SSW 20 26 11 14 1023.6 1023.1 0.2
23/10:00pm 15.8 12.1 9.5 66 3.3 SSW 19 24 10 13 1023.3 1022.8 0.2
23/09:30pm 16.6 12.9 9.5 63 3.7 SSW 19 22 10 12 1022.9 1022.5 0.2
23/09:00pm 17.4 13.7 9.6 60 4.1 SSW 19 24 10 13 1022.5 1022.1 0.2
23/08:30pm 18.5 14.9 9.8 57 4.6 SSW 19 24 10 13 1022.0 1021.6 0.2
23/08:00pm 19.5 15.8 10.0 54 5.1 SSW 20 26 11 14 1021.5 1021.1 0.2
23/07:30pm 21.1 16.5 9.7 48 6.1 SSW 24 30 13 16 1021.0 1020.6 0.2
23/07:00pm 22.4 17.9 10.2 46 6.7 SSW 24 32 13 17 1020.5 1020.1 0.2
23/06:30pm 23.9 20.1 9.9 41 7.7 SSW 20 28 11 15 1020.2 1019.8 0.2
23/06:00pm 24.3 20.4 9.5 39 8.1 SW 20 30 11 16 1020.1 1019.7 0.2
23/05:30pm 25.1 21.3 9.8 38 8.4 SSW 20 33 11 18 1019.9 1019.5 0.2
23/05:00pm 25.4 21.9 10.1 38 8.5 SSW 19 30 10 16 1019.6 1019.2 0.2
23/04:30pm 25.5 21.9 9.7 37 8.7 SSW 19 26 10 14 1019.6 1019.2 0.2

Other Formats:

Comma delimited format used in spreadsheet applications
http://www.bom.gov.au/fwo/IDS60801/IDS60801.94690.axf

JavaScript Object Notation format (JSON) in row-major order
http://www.bom.gov.au/fwo/IDS60801/IDS60801.94690.json